sensor_id;sensor_type;location;lat;lon;timestamp;P1;durP1;ratioP1;P2;durP2;ratioP2
75810;SDS011;64449;50.016;19.954;2024-02-15T00:01:33;19.60;;;9.80;;
75810;SDS011;64449;50.016;19.954;2024-02-15T00:03:59;21.90;;;10.50;;
75810;SDS011;64449;50.016;19.954;2024-02-15T00:06:24;23.10;;;11.40;;
75810;SDS011;64449;50.016;19.954;2024-02-15T00:08:50;20.80;;;11.20;;
75810;SDS011;64449;50.016;19.954;2024-02-15T00:11:17;18.70;;;10.20;;
75810;SDS011;64449;50.016;19.954;2024-02-15T00:13:43;17.20;;;9.10;;
75810;SDS011;64449;50.016;19.954;2024-02-15T00:16:12;21.10;;;9.50;;
75810;SDS011;64449;50.016;19.954;2024-02-15T00:18:39;19.00;;;9.90;;
75810;SDS011;64449;50.016;19.954;2024-02-15T00:21:05;23.20;;;10.60;;
75810;SDS011;64449;50.016;19.954;2024-02-15T00:23:30;20.30;;;10.00;;
75810;SDS011;64449;50.016;19.954;2024-02-15T00:25:57;22.00;;;10.00;;
75810;SDS011;64449;50.016;19.954;2024-02-15T00:28:23;19.70;;;9.60;;
75810;SDS011;64449;50.016;19.954;2024-02-15T00:30:49;19.40;;;10.00;;
75810;SDS011;64449;50.016;19.954;2024-02-15T00:33:15;19.40;;;9.90;;
75810;SDS011;64449;50.016;19.954;2024-02-15T00:35:40;19.70;;;11.80;;
75810;SDS011;64449;50.016;19.954;2024-02-15T00:38:06;21.30;;;10.50;;
75810;SDS011;64449;50.016;19.954;2024-02-15T00:40:32;23.90;;;12.10;;
75810;SDS011;64449;50.016;19.954;2024-02-15T00:42:57;27.10;;;12.50;;
75810;SDS011;64449;50.016;19.954;2024-02-15T00:45:23;26.50;;;11.80;;
75810;SDS011;64449;50.016;19.954;2024-02-15T00:47:49;25.00;;;12.30;;
75810;SDS011;64449;50.016;19.954;2024-02-15T00:50:14;22.80;;;12.70;;
75810;SDS011;64449;50.016;19.954;2024-02-15T00:52:40;27.30;;;12.70;;
75810;SDS011;64449;50.016;19.954;2024-02-15T00:55:05;24.40;;;11.70;;
75810;SDS011;64449;50.016;19.954;2024-02-15T00:57:31;23.40;;;11.90;;
75810;SDS011;64449;50.016;19.954;2024-02-15T00:59:57;21.00;;;11.50;;
75810;SDS011;64449;50.016;19.954;2024-02-15T01:02:22;27.10;;;12.00;;
75810;SDS011;64449;50.016;19.954;2024-02-15T01:04:48;22.40;;;12.20;;
75810;SDS011;64449;50.016;19.954;2024-02-15T01:07:15;27.50;;;11.90;;
75810;SDS011;64449;50.016;19.954;2024-02-15T01:09:40;26.40;;;12.00;;
75810;SDS011;64449;50.016;19.954;2024-02-15T01:12:06;28.10;;;12.70;;
75810;SDS011;64449;50.016;19.954;2024-02-15T01:14:31;28.90;;;12.70;;
75810;SDS011;64449;50.016;19.954;2024-02-15T01:16:57;27.90;;;12.80;;
75810;SDS011;64449;50.016;19.954;2024-02-15T01:19:22;21.70;;;12.60;;
75810;SDS011;64449;50.016;19.954;2024-02-15T01:21:48;23.90;;;11.70;;
75810;SDS011;64449;50.016;19.954;2024-02-15T01:24:13;27.60;;;13.20;;
75810;SDS011;64449;50.016;19.954;2024-02-15T01:26:39;21.80;;;12.50;;
75810;SDS011;64449;50.016;19.954;2024-02-15T01:29:04;22.80;;;12.10;;
75810;SDS011;64449;50.016;19.954;2024-02-15T01:31:29;18.70;;;11.80;;
75810;SDS011;64449;50.016;19.954;2024-02-15T01:33:55;26.60;;;12.70;;
75810;SDS011;64449;50.016;19.954;2024-02-15T01:36:20;23.40;;;11.20;;
75810;SDS011;64449;50.016;19.954;2024-02-15T01:38:46;29.50;;;12.80;;
75810;SDS011;64449;50.016;19.954;2024-02-15T01:41:11;21.30;;;10.60;;
75810;SDS011;64449;50.016;19.954;2024-02-15T01:43:37;22.40;;;10.70;;
75810;SDS011;64449;50.016;19.954;2024-02-15T01:46:03;21.10;;;13.00;;
75810;SDS011;64449;50.016;19.954;2024-02-15T01:48:35;22.10;;;11.20;;
75810;SDS011;64449;50.016;19.954;2024-02-15T01:51:02;22.00;;;12.20;;
75810;SDS011;64449;50.016;19.954;2024-02-15T01:53:28;22.20;;;11.00;;
75810;SDS011;64449;50.016;19.954;2024-02-15T01:55:55;22.70;;;12.20;;
75810;SDS011;64449;50.016;19.954;2024-02-15T01:58:23;24.10;;;12.90;;
75810;SDS011;64449;50.016;19.954;2024-02-15T02:00:50;21.50;;;11.40;;
75810;SDS011;64449;50.016;19.954;2024-02-15T02:03:17;25.20;;;12.30;;
75810;SDS011;64449;50.016;19.954;2024-02-15T02:05:43;25.50;;;12.60;;
75810;SDS011;64449;50.016;19.954;2024-02-15T02:08:09;27.70;;;12.20;;
75810;SDS011;64449;50.016;19.954;2024-02-15T02:10:37;21.40;;;11.50;;
75810;SDS011;64449;50.016;19.954;2024-02-15T02:13:07;31.90;;;12.60;;
75810;SDS011;64449;50.016;19.954;2024-02-15T02:15:34;25.10;;;11.70;;
75810;SDS011;64449;50.016;19.954;2024-02-15T02:18:02;23.70;;;11.30;;
75810;SDS011;64449;50.016;19.954;2024-02-15T02:20:31;20.50;;;10.70;;
75810;SDS011;64449;50.016;19.954;2024-02-15T02:23:13;23.50;;;10.80;;
75810;SDS011;64449;50.016;19.954;2024-02-15T02:25:39;23.50;;;11.70;;
75810;SDS011;64449;50.016;19.954;2024-02-15T02:28:07;21.80;;;10.30;;
75810;SDS011;64449;50.016;19.954;2024-02-15T02:30:33;24.70;;;11.90;;
75810;SDS011;64449;50.016;19.954;2024-02-15T02:33:00;24.80;;;11.60;;
75810;SDS011;64449;50.016;19.954;2024-02-15T02:35:26;20.70;;;11.00;;
75810;SDS011;64449;50.016;19.954;2024-02-15T02:37:55;22.90;;;10.80;;
75810;SDS011;64449;50.016;19.954;2024-02-15T02:40:21;25.80;;;11.40;;
75810;SDS011;64449;50.016;19.954;2024-02-15T02:42:51;21.30;;;11.30;;
75810;SDS011;64449;50.016;19.954;2024-02-15T02:45:18;23.90;;;10.30;;
75810;SDS011;64449;50.016;19.954;2024-02-15T02:47:51;19.80;;;10.20;;
75810;SDS011;64449;50.016;19.954;2024-02-15T02:50:17;19.00;;;9.50;;
75810;SDS011;64449;50.016;19.954;2024-02-15T02:52:44;24.30;;;12.80;;
75810;SDS011;64449;50.016;19.954;2024-02-15T02:55:10;24.50;;;12.30;;
75810;SDS011;64449;50.016;19.954;2024-02-15T02:57:36;21.50;;;10.50;;
75810;SDS011;64449;50.016;19.954;2024-02-15T03:00:03;24.10;;;12.20;;
75810;SDS011;64449;50.016;19.954;2024-02-15T03:02:38;20.50;;;10.40;;
75810;SDS011;64449;50.016;19.954;2024-02-15T03:05:04;20.30;;;9.40;;
75810;SDS011;64449;50.016;19.954;2024-02-15T03:07:34;18.60;;;10.20;;
75810;SDS011;64449;50.016;19.954;2024-02-15T03:10:04;19.10;;;9.60;;
75810;SDS011;64449;50.016;19.954;2024-02-15T03:12:33;17.60;;;9.20;;
75810;SDS011;64449;50.016;19.954;2024-02-15T03:15:05;16.70;;;8.90;;
75810;SDS011;64449;50.016;19.954;2024-02-15T03:17:39;14.50;;;7.60;;
75810;SDS011;64449;50.016;19.954;2024-02-15T03:20:06;13.70;;;7.00;;
75810;SDS011;64449;50.016;19.954;2024-02-15T03:22:37;14.70;;;6.50;;
75810;SDS011;64449;50.016;19.954;2024-02-15T03:25:06;15.40;;;7.00;;
75810;SDS011;64449;50.016;19.954;2024-02-15T03:27:36;14.60;;;6.30;;
75810;SDS011;64449;50.016;19.954;2024-02-15T03:30:05;15.00;;;6.60;;
75810;SDS011;64449;50.016;19.954;2024-02-15T03:32:31;15.90;;;7.70;;
75810;SDS011;64449;50.016;19.954;2024-02-15T03:34:56;16.80;;;7.30;;
75810;SDS011;64449;50.016;19.954;2024-02-15T03:37:22;17.70;;;7.40;;
75810;SDS011;64449;50.016;19.954;2024-02-15T03:39:47;13.20;;;6.80;;
75810;SDS011;64449;50.016;19.954;2024-02-15T03:42:12;17.80;;;7.40;;
75810;SDS011;64449;50.016;19.954;2024-02-15T03:44:38;15.50;;;6.80;;
75810;SDS011;64449;50.016;19.954;2024-02-15T03:47:06;13.70;;;7.00;;
75810;SDS011;64449;50.016;19.954;2024-02-15T03:49:32;15.00;;;8.20;;
75810;SDS011;64449;50.016;19.954;2024-02-15T03:51:57;14.30;;;6.50;;
75810;SDS011;64449;50.016;19.954;2024-02-15T03:54:26;15.70;;;7.70;;
75810;SDS011;64449;50.016;19.954;2024-02-15T03:56:52;12.70;;;7.00;;
75810;SDS011;64449;50.016;19.954;2024-02-15T03:59:21;15.80;;;7.70;;
75810;SDS011;64449;50.016;19.954;2024-02-15T04:01:55;13.20;;;6.90;;
75810;SDS011;64449;50.016;19.954;2024-02-15T04:04:22;15.00;;;7.10;;
75810;SDS011;64449;50.016;19.954;2024-02-15T04:06:48;12.70;;;7.50;;
75810;SDS011;64449;50.016;19.954;2024-02-15T04:09:14;15.50;;;7.60;;
75810;SDS011;64449;50.016;19.954;2024-02-15T04:11:39;16.30;;;7.30;;
75810;SDS011;64449;50.016;19.954;2024-02-15T04:14:05;16.60;;;7.20;;
75810;SDS011;64449;50.016;19.954;2024-02-15T04:16:30;14.80;;;7.40;;
75810;SDS011;64449;50.016;19.954;2024-02-15T04:18:58;14.10;;;6.60;;
75810;SDS011;64449;50.016;19.954;2024-02-15T04:21:24;14.40;;;7.10;;
75810;SDS011;64449;50.016;19.954;2024-02-15T04:23:49;12.80;;;6.90;;
75810;SDS011;64449;50.016;19.954;2024-02-15T04:26:17;16.30;;;8.10;;
75810;SDS011;64449;50.016;19.954;2024-02-15T04:28:44;13.40;;;7.70;;
75810;SDS011;64449;50.016;19.954;2024-02-15T04:31:13;12.80;;;6.90;;
75810;SDS011;64449;50.016;19.954;2024-02-15T04:33:40;12.50;;;7.00;;
75810;SDS011;64449;50.016;19.954;2024-02-15T04:36:06;18.60;;;7.00;;
75810;SDS011;64449;50.016;19.954;2024-02-15T04:38:32;19.40;;;7.40;;
75810;SDS011;64449;50.016;19.954;2024-02-15T04:41:01;12.30;;;6.20;;
75810;SDS011;64449;50.016;19.954;2024-02-15T04:43:29;14.10;;;6.60;;
75810;SDS011;64449;50.016;19.954;2024-02-15T04:45:54;12.30;;;6.80;;
75810;SDS011;64449;50.016;19.954;2024-02-15T04:48:20;15.40;;;8.20;;
75810;SDS011;64449;50.016;19.954;2024-02-15T04:50:46;15.60;;;8.20;;
75810;SDS011;64449;50.016;19.954;2024-02-15T04:53:12;16.30;;;8.60;;
75810;SDS011;64449;50.016;19.954;2024-02-15T04:55:37;17.00;;;9.40;;
75810;SDS011;64449;50.016;19.954;2024-02-15T04:58:03;18.00;;;10.80;;
75810;SDS011;64449;50.016;19.954;2024-02-15T05:00:29;19.80;;;9.80;;
75810;SDS011;64449;50.016;19.954;2024-02-15T05:02:55;19.00;;;10.30;;
75810;SDS011;64449;50.016;19.954;2024-02-15T05:05:20;22.80;;;11.40;;
75810;SDS011;64449;50.016;19.954;2024-02-15T05:07:46;21.80;;;10.50;;
75810;SDS011;64449;50.016;19.954;2024-02-15T05:10:14;25.00;;;10.50;;
75810;SDS011;64449;50.016;19.954;2024-02-15T05:12:41;24.20;;;12.70;;
75810;SDS011;64449;50.016;19.954;2024-02-15T05:15:08;25.80;;;12.10;;
75810;SDS011;64449;50.016;19.954;2024-02-15T05:17:40;21.90;;;11.40;;
75810;SDS011;64449;50.016;19.954;2024-02-15T05:20:07;24.40;;;11.60;;
75810;SDS011;64449;50.016;19.954;2024-02-15T05:22:36;20.40;;;11.30;;
75810;SDS011;64449;50.016;19.954;2024-02-15T05:25:04;19.80;;;11.90;;
75810;SDS011;64449;50.016;19.954;2024-02-15T05:27:31;24.70;;;13.00;;
75810;SDS011;64449;50.016;19.954;2024-02-15T05:29:56;24.20;;;14.00;;
75810;SDS011;64449;50.016;19.954;2024-02-15T05:32:22;24.10;;;11.90;;
75810;SDS011;64449;50.016;19.954;2024-02-15T05:34:47;24.30;;;12.20;;
75810;SDS011;64449;50.016;19.954;2024-02-15T05:37:14;21.20;;;11.90;;
75810;SDS011;64449;50.016;19.954;2024-02-15T05:39:41;24.90;;;12.20;;
75810;SDS011;64449;50.016;19.954;2024-02-15T05:42:06;25.20;;;12.90;;
75810;SDS011;64449;50.016;19.954;2024-02-15T05:44:32;25.90;;;11.40;;
75810;SDS011;64449;50.016;19.954;2024-02-15T05:46:59;23.70;;;13.00;;
75810;SDS011;64449;50.016;19.954;2024-02-15T05:49:25;18.60;;;11.10;;
75810;SDS011;64449;50.016;19.954;2024-02-15T05:51:51;20.00;;;11.60;;
75810;SDS011;64449;50.016;19.954;2024-02-15T05:54:19;22.00;;;11.70;;
75810;SDS011;64449;50.016;19.954;2024-02-15T05:56:44;22.30;;;12.00;;
75810;SDS011;64449;50.016;19.954;2024-02-15T05:59:10;20.90;;;12.00;;
75810;SDS011;64449;50.016;19.954;2024-02-15T06:01:42;23.30;;;11.10;;
75810;SDS011;64449;50.016;19.954;2024-02-15T06:04:08;22.30;;;10.70;;
75810;SDS011;64449;50.016;19.954;2024-02-15T06:06:34;20.10;;;10.30;;
75810;SDS011;64449;50.016;19.954;2024-02-15T06:09:00;23.50;;;12.00;;
75810;SDS011;64449;50.016;19.954;2024-02-15T06:11:26;22.30;;;11.40;;
75810;SDS011;64449;50.016;19.954;2024-02-15T06:13:52;22.90;;;11.70;;
75810;SDS011;64449;50.016;19.954;2024-02-15T06:16:18;23.10;;;10.10;;
75810;SDS011;64449;50.016;19.954;2024-02-15T06:18:43;24.00;;;12.10;;
75810;SDS011;64449;50.016;19.954;2024-02-15T06:21:09;16.20;;;9.00;;
75810;SDS011;64449;50.016;19.954;2024-02-15T06:23:34;21.50;;;10.90;;
75810;SDS011;64449;50.016;19.954;2024-02-15T06:26:00;26.80;;;12.10;;
75810;SDS011;64449;50.016;19.954;2024-02-15T06:28:27;22.70;;;11.40;;
75810;SDS011;64449;50.016;19.954;2024-02-15T06:31:12;23.00;;;10.80;;
75810;SDS011;64449;50.016;19.954;2024-02-15T06:33:57;21.70;;;11.10;;
75810;SDS011;64449;50.016;19.954;2024-02-15T06:36:48;23.40;;;12.40;;
75810;SDS011;64449;50.016;19.954;2024-02-15T06:39:34;20.70;;;11.50;;
75810;SDS011;64449;50.016;19.954;2024-02-15T06:42:09;22.50;;;11.70;;
75810;SDS011;64449;50.016;19.954;2024-02-15T06:44:41;23.10;;;12.20;;
75810;SDS011;64449;50.016;19.954;2024-02-15T06:47:07;26.40;;;11.70;;
75810;SDS011;64449;50.016;19.954;2024-02-15T06:49:37;26.10;;;11.80;;
75810;SDS011;64449;50.016;19.954;2024-02-15T06:52:07;20.10;;;10.10;;
75810;SDS011;64449;50.016;19.954;2024-02-15T06:54:33;18.60;;;10.90;;
75810;SDS011;64449;50.016;19.954;2024-02-15T06:57:01;17.80;;;10.50;;
75810;SDS011;64449;50.016;19.954;2024-02-15T06:59:30;21.40;;;11.80;;
75810;SDS011;64449;50.016;19.954;2024-02-15T07:02:00;20.40;;;11.00;;
75810;SDS011;64449;50.016;19.954;2024-02-15T07:04:26;22.40;;;10.60;;
75810;SDS011;64449;50.016;19.954;2024-02-15T07:06:52;23.60;;;10.60;;
75810;SDS011;64449;50.016;19.954;2024-02-15T07:09:19;18.50;;;10.60;;
75810;SDS011;64449;50.016;19.954;2024-02-15T07:11:46;20.80;;;11.40;;
75810;SDS011;64449;50.016;19.954;2024-02-15T07:14:12;23.80;;;11.50;;
75810;SDS011;64449;50.016;19.954;2024-02-15T07:16:38;25.60;;;12.00;;
75810;SDS011;64449;50.016;19.954;2024-02-15T07:19:04;24.30;;;11.60;;
75810;SDS011;64449;50.016;19.954;2024-02-15T07:21:30;22.40;;;11.50;;
75810;SDS011;64449;50.016;19.954;2024-02-15T07:23:57;24.30;;;11.80;;
75810;SDS011;64449;50.016;19.954;2024-02-15T07:26:24;24.40;;;12.90;;
75810;SDS011;64449;50.016;19.954;2024-02-15T07:28:53;23.00;;;11.90;;
75810;SDS011;64449;50.016;19.954;2024-02-15T07:31:20;24.40;;;12.60;;
75810;SDS011;64449;50.016;19.954;2024-02-15T07:33:47;26.70;;;13.40;;
75810;SDS011;64449;50.016;19.954;2024-02-15T07:36:22;31.90;;;13.50;;
75810;SDS011;64449;50.016;19.954;2024-02-15T07:38:52;28.10;;;12.30;;
75810;SDS011;64449;50.016;19.954;2024-02-15T07:41:20;23.70;;;13.30;;
75810;SDS011;64449;50.016;19.954;2024-02-15T07:43:47;30.30;;;14.70;;
75810;SDS011;64449;50.016;19.954;2024-02-15T07:46:16;24.10;;;13.00;;
75810;SDS011;64449;50.016;19.954;2024-02-15T07:48:45;26.80;;;13.40;;
75810;SDS011;64449;50.016;19.954;2024-02-15T07:51:18;29.30;;;13.50;;
75810;SDS011;64449;50.016;19.954;2024-02-15T07:53:44;30.40;;;14.60;;
75810;SDS011;64449;50.016;19.954;2024-02-15T07:56:10;24.20;;;14.00;;
75810;SDS011;64449;50.016;19.954;2024-02-15T07:58:44;29.60;;;13.90;;
75810;SDS011;64449;50.016;19.954;2024-02-15T08:01:14;25.00;;;13.90;;
75810;SDS011;64449;50.016;19.954;2024-02-15T08:03:46;29.10;;;13.70;;
75810;SDS011;64449;50.016;19.954;2024-02-15T08:06:12;33.40;;;13.40;;
75810;SDS011;64449;50.016;19.954;2024-02-15T08:08:40;28.80;;;13.50;;
75810;SDS011;64449;50.016;19.954;2024-02-15T08:11:07;23.10;;;11.60;;
75810;SDS011;64449;50.016;19.954;2024-02-15T08:13:48;22.60;;;10.70;;
75810;SDS011;64449;50.016;19.954;2024-02-15T08:16:18;21.50;;;11.20;;
75810;SDS011;64449;50.016;19.954;2024-02-15T08:21:12;19.00;;;10.10;;
75810;SDS011;64449;50.016;19.954;2024-02-15T08:23:37;26.40;;;13.50;;
75810;SDS011;64449;50.016;19.954;2024-02-15T08:26:03;19.10;;;10.20;;
75810;SDS011;64449;50.016;19.954;2024-02-15T08:28:29;20.30;;;10.30;;
75810;SDS011;64449;50.016;19.954;2024-02-15T08:30:55;20.60;;;9.50;;
75810;SDS011;64449;50.016;19.954;2024-02-15T08:33:22;22.30;;;11.30;;
75810;SDS011;64449;50.016;19.954;2024-02-15T08:35:48;23.80;;;11.30;;
75810;SDS011;64449;50.016;19.954;2024-02-15T08:38:14;18.00;;;10.20;;
75810;SDS011;64449;50.016;19.954;2024-02-15T08:40:39;16.20;;;9.50;;
75810;SDS011;64449;50.016;19.954;2024-02-15T08:43:05;19.90;;;10.50;;
75810;SDS011;64449;50.016;19.954;2024-02-15T08:45:31;20.40;;;10.70;;
75810;SDS011;64449;50.016;19.954;2024-02-15T08:47:56;21.70;;;9.40;;
75810;SDS011;64449;50.016;19.954;2024-02-15T08:50:22;19.50;;;10.70;;
75810;SDS011;64449;50.016;19.954;2024-02-15T08:52:48;24.00;;;10.70;;
75810;SDS011;64449;50.016;19.954;2024-02-15T08:55:15;16.60;;;9.00;;
75810;SDS011;64449;50.016;19.954;2024-02-15T08:57:40;16.50;;;9.30;;
75810;SDS011;64449;50.016;19.954;2024-02-15T09:00:07;15.90;;;8.70;;
75810;SDS011;64449;50.016;19.954;2024-02-15T09:02:38;14.30;;;7.90;;
75810;SDS011;64449;50.016;19.954;2024-02-15T09:05:05;16.80;;;6.80;;
75810;SDS011;64449;50.016;19.954;2024-02-15T09:07:31;17.50;;;7.60;;
75810;SDS011;64449;50.016;19.954;2024-02-15T09:09:56;14.30;;;6.60;;
75810;SDS011;64449;50.016;19.954;2024-02-15T09:12:22;12.90;;;7.30;;
75810;SDS011;64449;50.016;19.954;2024-02-15T09:14:47;20.70;;;8.00;;
75810;SDS011;64449;50.016;19.954;2024-02-15T09:17:13;17.80;;;7.30;;
75810;SDS011;64449;50.016;19.954;2024-02-15T09:19:39;13.00;;;7.20;;
75810;SDS011;64449;50.016;19.954;2024-02-15T09:22:04;17.20;;;9.30;;
75810;SDS011;64449;50.016;19.954;2024-02-15T09:24:31;25.10;;;13.50;;
75810;SDS011;64449;50.016;19.954;2024-02-15T09:26:59;29.50;;;14.10;;
75810;SDS011;64449;50.016;19.954;2024-02-15T09:29:27;30.20;;;16.10;;
75810;SDS011;64449;50.016;19.954;2024-02-15T09:31:55;32.20;;;15.00;;
75810;SDS011;64449;50.016;19.954;2024-02-15T09:34:22;29.90;;;15.00;;
75810;SDS011;64449;50.016;19.954;2024-02-15T09:36:47;31.80;;;16.40;;
75810;SDS011;64449;50.016;19.954;2024-02-15T09:39:12;34.80;;;16.60;;
75810;SDS011;64449;50.016;19.954;2024-02-15T09:41:39;36.00;;;18.80;;
75810;SDS011;64449;50.016;19.954;2024-02-15T09:44:05;34.60;;;17.60;;
75810;SDS011;64449;50.016;19.954;2024-02-15T09:46:33;36.50;;;17.40;;
75810;SDS011;64449;50.016;19.954;2024-02-15T09:49:01;32.90;;;16.00;;
75810;SDS011;64449;50.016;19.954;2024-02-15T09:51:29;36.00;;;17.70;;
75810;SDS011;64449;50.016;19.954;2024-02-15T09:53:58;34.90;;;17.90;;
75810;SDS011;64449;50.016;19.954;2024-02-15T09:56:26;41.20;;;18.80;;
75810;SDS011;64449;50.016;19.954;2024-02-15T09:58:53;36.40;;;16.40;;
75810;SDS011;64449;50.016;19.954;2024-02-15T10:01:22;35.00;;;18.00;;
75810;SDS011;64449;50.016;19.954;2024-02-15T10:03:50;30.30;;;17.10;;
75810;SDS011;64449;50.016;19.954;2024-02-15T10:06:16;29.40;;;15.30;;
75810;SDS011;64449;50.016;19.954;2024-02-15T10:08:43;30.20;;;16.40;;
75810;SDS011;64449;50.016;19.954;2024-02-15T10:11:09;31.80;;;16.90;;
75810;SDS011;64449;50.016;19.954;2024-02-15T10:13:35;32.60;;;16.60;;
75810;SDS011;64449;50.016;19.954;2024-02-15T10:16:19;28.80;;;15.50;;
75810;SDS011;64449;50.016;19.954;2024-02-15T10:18:50;26.00;;;14.40;;
75810;SDS011;64449;50.016;19.954;2024-02-15T10:21:26;21.70;;;12.00;;
75810;SDS011;64449;50.016;19.954;2024-02-15T10:24:04;21.40;;;10.50;;
75810;SDS011;64449;50.016;19.954;2024-02-15T10:26:31;18.50;;;10.80;;
75810;SDS011;64449;50.016;19.954;2024-02-15T10:31:35;10.00;;;5.00;;
75810;SDS011;64449;50.016;19.954;2024-02-15T10:34:06;10.40;;;4.70;;
75810;SDS011;64449;50.016;19.954;2024-02-15T10:36:33;9.30;;;4.80;;
75810;SDS011;64449;50.016;19.954;2024-02-15T10:39:18;9.00;;;4.40;;
75810;SDS011;64449;50.016;19.954;2024-02-15T10:41:50;14.20;;;4.60;;
75810;SDS011;64449;50.016;19.954;2024-02-15T10:44:21;4.90;;;2.70;;
75810;SDS011;64449;50.016;19.954;2024-02-15T10:46:51;5.90;;;3.10;;
75810;SDS011;64449;50.016;19.954;2024-02-15T10:49:21;5.40;;;2.50;;
75810;SDS011;64449;50.016;19.954;2024-02-15T10:51:49;4.70;;;2.40;;
75810;SDS011;64449;50.016;19.954;2024-02-15T10:55:08;5.20;;;2.60;;
75810;SDS011;64449;50.016;19.954;2024-02-15T10:57:43;5.90;;;3.60;;
75810;SDS011;64449;50.016;19.954;2024-02-15T11:00:12;7.70;;;4.00;;
75810;SDS011;64449;50.016;19.954;2024-02-15T11:03:07;5.60;;;3.30;;
75810;SDS011;64449;50.016;19.954;2024-02-15T11:05:35;5.40;;;3.00;;
75810;SDS011;64449;50.016;19.954;2024-02-15T11:08:06;7.10;;;2.50;;
75810;SDS011;64449;50.016;19.954;2024-02-15T11:10:36;5.00;;;2.50;;
75810;SDS011;64449;50.016;19.954;2024-02-15T11:13:03;4.30;;;2.70;;
75810;SDS011;64449;50.016;19.954;2024-02-15T11:18:02;4.30;;;2.30;;
75810;SDS011;64449;50.016;19.954;2024-02-15T11:22:59;3.70;;;2.00;;
75810;SDS011;64449;50.016;19.954;2024-02-15T11:25:35;4.90;;;2.70;;
75810;SDS011;64449;50.016;19.954;2024-02-15T11:30:45;3.90;;;1.80;;
75810;SDS011;64449;50.016;19.954;2024-02-15T11:33:25;4.50;;;2.10;;
75810;SDS011;64449;50.016;19.954;2024-02-15T11:36:07;3.30;;;1.90;;
75810;SDS011;64449;50.016;19.954;2024-02-15T11:38:35;3.70;;;1.90;;
75810;SDS011;64449;50.016;19.954;2024-02-15T11:41:01;5.00;;;2.60;;
75810;SDS011;64449;50.016;19.954;2024-02-15T11:46:21;3.80;;;2.20;;
75810;SDS011;64449;50.016;19.954;2024-02-15T11:48:50;3.10;;;1.60;;
75810;SDS011;64449;50.016;19.954;2024-02-15T11:51:25;3.30;;;1.70;;
75810;SDS011;64449;50.016;19.954;2024-02-15T11:54:05;4.10;;;1.60;;
75810;SDS011;64449;50.016;19.954;2024-02-15T11:56:31;2.90;;;1.50;;
75810;SDS011;64449;50.016;19.954;2024-02-15T11:59:09;2.70;;;1.70;;
75810;SDS011;64449;50.016;19.954;2024-02-15T12:01:43;3.10;;;1.40;;
75810;SDS011;64449;50.016;19.954;2024-02-15T12:04:32;4.20;;;1.40;;
75810;SDS011;64449;50.016;19.954;2024-02-15T12:07:16;3.70;;;1.50;;
75810;SDS011;64449;50.016;19.954;2024-02-15T12:10:00;6.40;;;2.00;;
75810;SDS011;64449;50.016;19.954;2024-02-15T12:12:53;2.50;;;1.20;;
75810;SDS011;64449;50.016;19.954;2024-02-15T12:15:37;3.50;;;1.60;;
75810;SDS011;64449;50.016;19.954;2024-02-15T12:18:21;3.70;;;1.70;;
75810;SDS011;64449;50.016;19.954;2024-02-15T12:21:05;4.30;;;1.80;;
75810;SDS011;64449;50.016;19.954;2024-02-15T12:23:35;3.00;;;1.30;;
75810;SDS011;64449;50.016;19.954;2024-02-15T12:26:03;2.70;;;1.50;;
75810;SDS011;64449;50.016;19.954;2024-02-15T12:28:29;3.60;;;2.00;;
75810;SDS011;64449;50.016;19.954;2024-02-15T12:30:58;3.50;;;2.00;;
75810;SDS011;64449;50.016;19.954;2024-02-15T12:33:23;4.00;;;2.20;;
75810;SDS011;64449;50.016;19.954;2024-02-15T12:35:49;5.00;;;2.70;;
75810;SDS011;64449;50.016;19.954;2024-02-15T12:38:16;3.70;;;2.40;;
75810;SDS011;64449;50.016;19.954;2024-02-15T12:40:42;5.10;;;2.20;;
75810;SDS011;64449;50.016;19.954;2024-02-15T12:43:09;4.10;;;2.00;;
75810;SDS011;64449;50.016;19.954;2024-02-15T12:45:36;4.20;;;2.90;;
75810;SDS011;64449;50.016;19.954;2024-02-15T12:48:03;3.60;;;2.00;;
75810;SDS011;64449;50.016;19.954;2024-02-15T12:50:30;3.50;;;2.40;;
75810;SDS011;64449;50.016;19.954;2024-02-15T12:52:56;4.40;;;2.10;;
75810;SDS011;64449;50.016;19.954;2024-02-15T12:55:28;4.60;;;2.20;;
75810;SDS011;64449;50.016;19.954;2024-02-15T12:58:05;4.10;;;2.20;;
75810;SDS011;64449;50.016;19.954;2024-02-15T13:00:35;5.10;;;2.40;;
75810;SDS011;64449;50.016;19.954;2024-02-15T13:03:04;5.80;;;2.00;;
75810;SDS011;64449;50.016;19.954;2024-02-15T13:05:34;4.30;;;2.30;;
75810;SDS011;64449;50.016;19.954;2024-02-15T13:08:01;4.30;;;1.80;;
75810;SDS011;64449;50.016;19.954;2024-02-15T13:10:27;4.30;;;2.60;;
75810;SDS011;64449;50.016;19.954;2024-02-15T13:12:54;3.50;;;1.80;;
75810;SDS011;64449;50.016;19.954;2024-02-15T13:15:21;3.90;;;2.00;;
75810;SDS011;64449;50.016;19.954;2024-02-15T13:17:52;3.10;;;1.70;;
75810;SDS011;64449;50.016;19.954;2024-02-15T13:20:25;3.40;;;1.90;;
75810;SDS011;64449;50.016;19.954;2024-02-15T13:22:58;2.90;;;1.50;;
75810;SDS011;64449;50.016;19.954;2024-02-15T13:25:33;3.60;;;2.20;;
75810;SDS011;64449;50.016;19.954;2024-02-15T13:27:59;4.10;;;2.40;;
75810;SDS011;64449;50.016;19.954;2024-02-15T13:30:24;5.10;;;2.40;;
75810;SDS011;64449;50.016;19.954;2024-02-15T13:32:52;4.60;;;2.30;;
75810;SDS011;64449;50.016;19.954;2024-02-15T13:35:21;4.10;;;2.20;;
75810;SDS011;64449;50.016;19.954;2024-02-15T13:37:53;7.10;;;3.00;;
75810;SDS011;64449;50.016;19.954;2024-02-15T13:40:20;4.80;;;2.50;;
75810;SDS011;64449;50.016;19.954;2024-02-15T13:42:51;5.80;;;3.60;;
75810;SDS011;64449;50.016;19.954;2024-02-15T13:45:24;6.10;;;2.70;;
75810;SDS011;64449;50.016;19.954;2024-02-15T13:47:58;5.00;;;2.50;;
75810;SDS011;64449;50.016;19.954;2024-02-15T13:52:54;5.30;;;2.90;;
75810;SDS011;64449;50.016;19.954;2024-02-15T13:55:19;6.60;;;3.50;;
75810;SDS011;64449;50.016;19.954;2024-02-15T13:57:48;5.40;;;2.60;;
75810;SDS011;64449;50.016;19.954;2024-02-15T14:00:14;4.60;;;2.30;;
75810;SDS011;64449;50.016;19.954;2024-02-15T14:02:48;4.40;;;2.50;;
75810;SDS011;64449;50.016;19.954;2024-02-15T14:05:13;5.50;;;2.80;;
75810;SDS011;64449;50.016;19.954;2024-02-15T14:07:39;5.30;;;3.20;;
75810;SDS011;64449;50.016;19.954;2024-02-15T14:10:05;5.90;;;2.70;;
75810;SDS011;64449;50.016;19.954;2024-02-15T14:12:33;4.70;;;2.80;;
75810;SDS011;64449;50.016;19.954;2024-02-15T14:14:59;5.00;;;2.30;;
75810;SDS011;64449;50.016;19.954;2024-02-15T14:17:25;4.50;;;2.70;;
75810;SDS011;64449;50.016;19.954;2024-02-15T14:19:50;4.00;;;2.20;;
75810;SDS011;64449;50.016;19.954;2024-02-15T14:22:16;4.90;;;2.60;;
75810;SDS011;64449;50.016;19.954;2024-02-15T14:24:42;5.40;;;2.90;;
75810;SDS011;64449;50.016;19.954;2024-02-15T14:27:09;4.40;;;2.30;;
75810;SDS011;64449;50.016;19.954;2024-02-15T14:29:36;4.60;;;2.90;;
75810;SDS011;64449;50.016;19.954;2024-02-15T14:32:09;6.50;;;2.50;;
75810;SDS011;64449;50.016;19.954;2024-02-15T14:34:54;4.40;;;2.70;;
75810;SDS011;64449;50.016;19.954;2024-02-15T14:37:21;5.20;;;2.70;;
75810;SDS011;64449;50.016;19.954;2024-02-15T14:39:47;4.60;;;2.80;;
75810;SDS011;64449;50.016;19.954;2024-02-15T14:42:12;9.10;;;2.90;;
75810;SDS011;64449;50.016;19.954;2024-02-15T14:44:39;7.90;;;3.40;;